sensor_id;sensor_type;location;lat;lon;timestamp;pressure;altitude;pressure_sealevel;temperature;humidity
43681;BME280;29281;50.356;30.894;2023-03-17T00:00:18;100378.58;;;3.17;100.00
43681;BME280;29281;50.356;30.894;2023-03-17T00:01:21;100384.84;;;3.13;100.00
43681;BME280;29281;50.356;30.894;2023-03-17T00:02:25;100379.44;;;3.17;100.00
43681;BME280;29281;50.356;30.894;2023-03-17T00:03:29;100384.08;;;3.09;100.00
43681;BME280;29281;50.356;30.894;2023-03-17T00:04:35;100381.31;;;3.14;100.00
43681;BME280;29281;50.356;30.894;2023-03-17T00:05:38;100385.59;;;3.16;100.00
43681;BME280;29281;50.356;30.894;2023-03-17T00:06:42;100382.97;;;3.16;100.00
43681;BME280;29281;50.356;30.894;2023-03-17T00:07:45;100388.75;;;3.26;100.00
43681;BME280;29281;50.356;30.894;2023-03-17T00:08:49;100381.48;;;3.34;100.00
43681;BME280;29281;50.356;30.894;2023-03-17T00:09:53;100385.06;;;3.32;100.00
43681;BME280;29281;50.356;30.894;2023-03-17T00:11:00;100389.45;;;3.31;100.00
43681;BME280;29281;50.356;30.894;2023-03-17T00:12:05;100384.41;;;3.25;100.00
43681;BME280;29281;50.356;30.894;2023-03-17T00:13:09;100386.02;;;3.04;100.00
43681;BME280;29281;50.356;30.894;2023-03-17T00:14:12;100380.45;;;3.13;100.00
43681;BME280;29281;50.356;30.894;2023-03-17T00:15:15;100381.83;;;3.24;100.00
43681;BME280;29281;50.356;30.894;2023-03-17T00:16:23;100395.44;;;3.10;100.00
43681;BME280;29281;50.356;30.894;2023-03-17T00:17:28;100385.75;;;3.12;100.00
43681;BME280;29281;50.356;30.894;2023-03-17T00:18:30;100392.52;;;3.19;100.00
43681;BME280;29281;50.356;30.894;2023-03-17T00:19:36;100379.45;;;2.91;100.00
43681;BME280;29281;50.356;30.894;2023-03-17T00:20:39;100382.88;;;2.93;100.00
43681;BME280;29281;50.356;30.894;2023-03-17T00:21:43;100385.46;;;2.95;100.00
43681;BME280;29281;50.356;30.894;2023-03-17T00:22:49;100393.04;;;3.04;100.00
43681;BME280;29281;50.356;30.894;2023-03-17T00:23:54;100385.12;;;3.05;100.00
43681;BME280;29281;50.356;30.894;2023-03-17T00:24:57;100384.73;;;3.16;100.00
43681;BME280;29281;50.356;30.894;2023-03-17T00:26:02;100387.79;;;3.04;100.00
43681;BME280;29281;50.356;30.894;2023-03-17T00:27:11;100382.11;;;3.16;100.00
43681;BME280;29281;50.356;30.894;2023-03-17T00:28:16;100387.27;;;3.19;100.00
43681;BME280;29281;50.356;30.894;2023-03-17T00:29:19;100392.66;;;3.14;100.00
43681;BME280;29281;50.356;30.894;2023-03-17T00:30:24;100394.42;;;3.14;100.00
43681;BME280;29281;50.356;30.894;2023-03-17T00:31:28;100395.66;;;3.04;100.00
43681;BME280;29281;50.356;30.894;2023-03-17T00:32:35;100389.42;;;3.06;100.00
43681;BME280;29281;50.356;30.894;2023-03-17T00:33:44;100394.38;;;3.15;100.00
43681;BME280;29281;50.356;30.894;2023-03-17T00:34:48;100399.58;;;3.17;100.00
43681;BME280;29281;50.356;30.894;2023-03-17T00:35:50;100393.52;;;3.15;100.00
43681;BME280;29281;50.356;30.894;2023-03-17T00:36:54;100395.23;;;3.16;100.00
43681;BME280;29281;50.356;30.894;2023-03-17T00:37:58;100393.52;;;3.15;100.00
43681;BME280;29281;50.356;30.894;2023-03-17T00:39:00;100395.91;;;2.96;100.00
43681;BME280;29281;50.356;30.894;2023-03-17T00:40:17;100394.14;;;2.97;100.00
43681;BME280;29281;50.356;30.894;2023-03-17T00:41:13;100399.53;;;2.92;100.00
43681;BME280;29281;50.356;30.894;2023-03-17T00:42:18;100392.28;;;3.00;100.00
43681;BME280;29281;50.356;30.894;2023-03-17T00:43:25;100397.30;;;3.06;100.00
43681;BME280;29281;50.356;30.894;2023-03-17T00:44:32;100390.09;;;3.13;100.00
43681;BME280;29281;50.356;30.894;2023-03-17T00:45:37;100401.44;;;3.13;100.00
43681;BME280;29281;50.356;30.894;2023-03-17T00:46:44;100395.66;;;3.04;100.00
43681;BME280;29281;50.356;30.894;2023-03-17T00:47:48;100395.77;;;3.01;100.00
43681;BME280;29281;50.356;30.894;2023-03-17T00:48:53;100395.33;;;3.13;100.00
43681;BME280;29281;50.356;30.894;2023-03-17T00:49:58;100387.61;;;3.08;100.00
43681;BME280;29281;50.356;30.894;2023-03-17T00:51:01;100394.62;;;3.08;100.00
43681;BME280;29281;50.356;30.894;2023-03-17T00:52:04;100389.66;;;3.00;100.00
43681;BME280;29281;50.356;30.894;2023-03-17T00:53:14;100392.28;;;3.00;100.00
43681;BME280;29281;50.356;30.894;2023-03-17T00:54:18;100392.52;;;3.19;100.00
43681;BME280;29281;50.356;30.894;2023-03-17T00:55:22;100393.95;;;3.28;100.00
43681;BME280;29281;50.356;30.894;2023-03-17T00:56:28;100393.72;;;3.09;100.00
43681;BME280;29281;50.356;30.894;2023-03-17T00:57:32;100396.09;;;3.16;100.00
43681;BME280;29281;50.356;30.894;2023-03-17T00:58:36;100395.19;;;3.17;100.00
43681;BME280;29281;50.356;30.894;2023-03-17T00:59:40;100403.30;;;3.10;100.00
43681;BME280;29281;50.356;30.894;2023-03-17T01:00:45;100392.77;;;3.11;100.00
43681;BME280;29281;50.356;30.894;2023-03-17T01:01:49;100407.12;;;3.26;100.00
43681;BME280;29281;50.356;30.894;2023-03-17T01:02:52;100394.95;;;3.24;100.00
43681;BME280;29281;50.356;30.894;2023-03-17T01:04:01;100397.15;;;3.11;100.00
43681;BME280;29281;50.356;30.894;2023-03-17T01:05:04;100398.77;;;3.15;100.00
43681;BME280;29281;50.356;30.894;2023-03-17T01:06:10;100401.77;;;3.29;100.00
43681;BME280;29281;50.356;30.894;2023-03-17T01:07:14;100393.19;;;3.24;100.00
43681;BME280;29281;50.356;30.894;2023-03-17T01:08:20;100394.62;;;3.08;100.00
43681;BME280;29281;50.356;30.894;2023-03-17T01:09:25;100399.63;;;3.15;100.00
43681;BME280;29281;50.356;30.894;2023-03-17T01:10:29;100393.04;;;3.04;100.00
43681;BME280;29281;50.356;30.894;2023-03-17T01:11:33;100401.48;;;3.12;100.00
43681;BME280;29281;50.356;30.894;2023-03-17T01:12:36;100394.58;;;3.09;100.00
43681;BME280;29281;50.356;30.894;2023-03-17T01:13:40;100397.47;;;3.02;100.00
43681;BME280;29281;50.356;30.894;2023-03-17T01:14:43;100393.42;;;2.92;100.00
43681;BME280;29281;50.356;30.894;2023-03-17T01:15:48;100399.38;;;2.97;100.00
43681;BME280;29281;50.356;30.894;2023-03-17T01:16:52;100393.37;;;3.20;100.00
43681;BME280;29281;50.356;30.894;2023-03-17T01:18:01;100401.97;;;3.23;100.00
43681;BME280;29281;50.356;30.894;2023-03-17T01:19:02;100396.30;;;3.10;100.00
43681;BME280;29281;50.356;30.894;2023-03-17T01:20:10;100398.97;;;3.09;100.00
43681;BME280;29281;50.356;30.894;2023-03-17T01:21:14;100405.77;;;2.90;100.00
43681;BME280;29281;50.356;30.894;2023-03-17T01:22:19;100405.25;;;3.05;100.00
43681;BME280;29281;50.356;30.894;2023-03-17T01:23:22;100408.26;;;2.93;100.00
43681;BME280;29281;50.356;30.894;2023-03-17T01:24:28;100409.87;;;2.97;100.00
43681;BME280;29281;50.356;30.894;2023-03-17T01:25:31;100408.78;;;3.04;100.00
43681;BME280;29281;50.356;30.894;2023-03-17T01:26:34;100409.87;;;2.97;100.00
43681;BME280;29281;50.356;30.894;2023-03-17T01:27:38;100403.68;;;2.99;100.00
43681;BME280;29281;50.356;30.894;2023-03-17T01:28:41;100406.00;;;2.82;100.00
43681;BME280;29281;50.356;30.894;2023-03-17T01:29:44;100415.31;;;2.91;100.00
43681;BME280;29281;50.356;30.894;2023-03-17T01:30:47;100414.63;;;2.86;100.00
43681;BME280;29281;50.356;30.894;2023-03-17T01:31:52;100413.50;;;2.93;100.00
43681;BME280;29281;50.356;30.894;2023-03-17T01:32:56;100408.48;;;2.87;100.00
43681;BME280;29281;50.356;30.894;2023-03-17T01:33:59;100409.48;;;2.82;100.00
43681;BME280;29281;50.356;30.894;2023-03-17T01:35:03;100410.64;;;3.00;100.00
43681;BME280;29281;50.356;30.894;2023-03-17T01:36:06;100412.45;;;2.98;100.00
43681;BME280;29281;50.356;30.894;2023-03-17T01:37:09;100409.39;;;2.86;100.00
43681;BME280;29281;50.356;30.894;2023-03-17T01:38:12;100407.16;;;3.00;100.00
43681;BME280;29281;50.356;30.894;2023-03-17T01:39:16;100411.27;;;3.07;100.00
43681;BME280;29281;50.356;30.894;2023-03-17T01:40:25;100414.41;;;2.92;100.00
43681;BME280;29281;50.356;30.894;2023-03-17T01:41:24;100412.36;;;3.01;100.00
43681;BME280;29281;50.356;30.894;2023-03-17T01:42:30;100415.80;;;3.03;100.00
43681;BME280;29281;50.356;30.894;2023-03-17T01:43:33;100407.35;;;2.94;100.00
43681;BME280;29281;50.356;30.894;2023-03-17T01:44:54;100416.08;;;2.94;100.00
43681;BME280;29281;50.356;30.894;2023-03-17T01:47:01;100404.53;;;3.00;100.00
43681;BME280;29281;50.356;30.894;2023-03-17T01:48:05;100413.91;;;2.80;100.00
43681;BME280;29281;50.356;30.894;2023-03-17T01:49:12;100415.22;;;2.94;100.00
43681;BME280;29281;50.356;30.894;2023-03-17T01:50:14;100421.06;;;2.75;100.00
43681;BME280;29281;50.356;30.894;2023-03-17T01:51:31;100410.89;;;2.66;100.00
43681;BME280;29281;50.356;30.894;2023-03-17T01:52:33;100422.69;;;2.79;100.00
43681;BME280;29281;50.356;30.894;2023-03-17T01:53:37;100424.72;;;2.98;100.00
43681;BME280;29281;50.356;30.894;2023-03-17T01:54:55;100426.34;;;3.02;100.00
43681;BME280;29281;50.356;30.894;2023-03-17T01:55:58;100426.63;;;2.93;100.00
43681;BME280;29281;50.356;30.894;2023-03-17T01:58:25;100419.06;;;2.83;100.00
43681;BME280;29281;50.356;30.894;2023-03-17T01:59:30;100423.95;;;2.94;100.00
43681;BME280;29281;50.356;30.894;2023-03-17T02:00:34;100428.69;;;3.09;100.00
43681;BME280;29281;50.356;30.894;2023-03-17T02:01:40;100433.89;;;3.11;100.00
43681;BME280;29281;50.356;30.894;2023-03-17T02:02:47;100433.08;;;3.09;100.00
43681;BME280;29281;50.356;30.894;2023-03-17T02:03:53;100434.49;;;2.93;100.00
43681;BME280;29281;50.356;30.894;2023-03-17T02:04:57;100435.92;;;3.03;100.00
43681;BME280;29281;50.356;30.894;2023-03-17T02:06:02;100437.64;;;3.04;100.00
43681;BME280;29281;50.356;30.894;2023-03-17T02:07:08;100439.05;;;2.88;100.00
43681;BME280;29281;50.356;30.894;2023-03-17T02:08:16;100435.03;;;2.76;100.00
43681;BME280;29281;50.356;30.894;2023-03-17T02:09:19;100445.75;;;2.96;100.00
43681;BME280;29281;50.356;30.894;2023-03-17T02:10:23;100442.53;;;2.88;100.00
43681;BME280;29281;50.356;30.894;2023-03-17T02:11:29;100439.86;;;2.90;100.00
43681;BME280;29281;50.356;30.894;2023-03-17T02:12:34;100435.66;;;2.84;100.00
43681;BME280;29281;50.356;30.894;2023-03-17T02:13:38;100440.86;;;2.86;100.00
43681;BME280;29281;50.356;30.894;2023-03-17T02:14:44;100443.39;;;2.89;100.00
43681;BME280;29281;50.356;30.894;2023-03-17T02:15:51;100444.25;;;2.89;100.00
43681;BME280;29281;50.356;30.894;2023-03-17T02:16:54;100446.02;;;2.89;100.00
43681;BME280;29281;50.356;30.894;2023-03-17T02:18:02;100447.00;;;3.11;100.00
43681;BME280;29281;50.356;30.894;2023-03-17T02:19:05;100455.59;;;3.16;100.00
43681;BME280;29281;50.356;30.894;2023-03-17T02:21:39;100456.45;;;2.90;100.00
43681;BME280;29281;50.356;30.894;2023-03-17T02:22:43;100456.10;;;3.01;100.00
43681;BME280;29281;50.356;30.894;2023-03-17T02:23:48;100457.73;;;3.05;100.00
43681;BME280;29281;50.356;30.894;2023-03-17T02:24:53;100464.61;;;3.07;100.00
43681;BME280;29281;50.356;30.894;2023-03-17T02:25:58;100463.61;;;3.11;100.00
43681;BME280;29281;50.356;30.894;2023-03-17T02:28:16;100464.97;;;2.97;100.00
43681;BME280;29281;50.356;30.894;2023-03-17T02:29:20;100458.87;;;2.96;100.00
43681;BME280;29281;50.356;30.894;2023-03-17T02:30:25;100465.92;;;2.94;100.00
43681;BME280;29281;50.356;30.894;2023-03-17T02:31:29;100475.52;;;2.95;100.00
43681;BME280;29281;50.356;30.894;2023-03-17T02:32:33;100464.42;;;2.87;100.00
43681;BME280;29281;50.356;30.894;2023-03-17T02:33:37;100474.74;;;2.92;100.00
43681;BME280;29281;50.356;30.894;2023-03-17T02:34:40;100468.90;;;2.83;100.00
43681;BME280;29281;50.356;30.894;2023-03-17T02:35:43;100463.56;;;2.87;100.00
43681;BME280;29281;50.356;30.894;2023-03-17T02:36:46;100467.69;;;2.94;100.00
43681;BME280;29281;50.356;30.894;2023-03-17T02:37:49;100467.69;;;2.94;100.00
43681;BME280;29281;50.356;30.894;2023-03-17T02:38:54;100461.89;;;2.84;100.00
43681;BME280;29281;50.356;30.894;2023-03-17T02:39:59;100474.74;;;2.92;100.00
43681;BME280;29281;50.356;30.894;2023-03-17T02:41:07;100464.83;;;3.01;100.00
43681;BME280;29281;50.356;30.894;2023-03-17T02:42:12;100467.27;;;2.79;100.00
43681;BME280;29281;50.356;30.894;2023-03-17T02:43:16;100472.25;;;2.89;100.00
43681;BME280;29281;50.356;30.894;2023-03-17T02:44:19;100464.78;;;3.03;100.00
43681;BME280;29281;50.356;30.894;2023-03-17T02:45:22;100471.63;;;3.07;100.00
43681;BME280;29281;50.356;30.894;2023-03-17T02:46:26;100470.72;;;3.08;100.00
43681;BME280;29281;50.356;30.894;2023-03-17T02:47:31;100476.59;;;3.16;100.00
43681;BME280;29281;50.356;30.894;2023-03-17T02:48:35;100468.76;;;3.14;100.00
43681;BME280;29281;50.356;30.894;2023-03-17T02:49:40;100483.88;;;3.06;100.00
43681;BME280;29281;50.356;30.894;2023-03-17T02:50:43;100482.24;;;3.04;100.00
43681;BME280;29281;50.356;30.894;2023-03-17T02:51:47;100478.77;;;3.03;100.00
43681;BME280;29281;50.356;30.894;2023-03-17T02:52:50;100481.16;;;2.83;100.00
43681;BME280;29281;50.356;30.894;2023-03-17T02:53:54;100484.37;;;2.91;100.00
43681;BME280;29281;50.356;30.894;2023-03-17T02:54:58;100477.95;;;3.01;100.00
43681;BME280;29281;50.356;30.894;2023-03-17T02:56:01;100481.66;;;2.94;100.00
43681;BME280;29281;50.356;30.894;2023-03-17T02:57:04;100481.30;;;2.78;100.00
43681;BME280;29281;50.356;30.894;2023-03-17T02:58:11;100490.48;;;2.92;100.00
43681;BME280;29281;50.356;30.894;2023-03-17T02:59:14;100484.86;;;3.04;100.00
43681;BME280;29281;50.356;30.894;2023-03-17T03:00:18;100477.00;;;3.04;100.00
43681;BME280;29281;50.356;30.894;2023-03-17T03:01:22;100478.72;;;3.05;100.00
43681;BME280;29281;50.356;30.894;2023-03-17T03:02:25;100483.20;;;3.01;100.00
43681;BME280;29281;50.356;30.894;2023-03-17T03:03:29;100481.38;;;3.03;100.00
43681;BME280;29281;50.356;30.894;2023-03-17T03:04:32;100481.93;;;3.13;100.00
43681;BME280;29281;50.356;30.894;2023-03-17T03:05:35;100485.36;;;3.15;100.00
43681;BME280;29281;50.356;30.894;2023-03-17T03:06:38;100487.54;;;3.02;100.00
43681;BME280;29281;50.356;30.894;2023-03-17T03:07:43;100479.85;;;2.96;100.00
43681;BME280;29281;50.356;30.894;2023-03-17T03:08:46;100483.10;;;3.04;100.00
43681;BME280;29281;50.356;30.894;2023-03-17T03:09:52;100481.34;;;3.05;100.00
43681;BME280;29281;50.356;30.894;2023-03-17T03:10:56;100487.36;;;3.07;100.00
43681;BME280;29281;50.356;30.894;2023-03-17T03:12:00;100482.20;;;3.05;100.00
43681;BME280;29281;50.356;30.894;2023-03-17T03:13:03;100478.49;;;3.11;100.00
43681;BME280;29281;50.356;30.894;2023-03-17T03:14:07;100488.17;;;3.09;100.00
43681;BME280;29281;50.356;30.894;2023-03-17T03:15:10;100483.88;;;3.06;100.00
43681;BME280;29281;50.356;30.894;2023-03-17T03:16:13;100482.93;;;3.09;100.00
43681;BME280;29281;50.356;30.894;2023-03-17T03:17:17;100485.91;;;2.98;100.00
43681;BME280;29281;50.356;30.894;2023-03-17T03:18:23;100486.41;;;3.09;100.00
43681;BME280;29281;50.356;30.894;2023-03-17T03:19:29;100487.54;;;3.02;100.00
43681;BME280;29281;50.356;30.894;2023-03-17T03:21:35;100479.12;;;3.19;100.00
43681;BME280;29281;50.356;30.894;2023-03-17T03:22:40;100489.66;;;3.17;100.00
43681;BME280;29281;50.356;30.894;2023-03-17T03:23:43;100495.00;;;3.14;100.00
43681;BME280;29281;50.356;30.894;2023-03-17T03:24:47;100492.56;;;3.08;100.00
43681;BME280;29281;50.356;30.894;2023-03-17T03:25:50;100492.38;;;3.14;100.00
43681;BME280;29281;50.356;30.894;2023-03-17T03:26:54;100490.84;;;3.07;100.00
43681;BME280;29281;50.356;30.894;2023-03-17T03:27:59;100492.56;;;3.08;100.00
43681;BME280;29281;50.356;30.894;2023-03-17T03:29:04;100492.92;;;2.98;100.00
43681;BME280;29281;50.356;30.894;2023-03-17T03:30:06;100496.09;;;3.07;100.00
43681;BME280;29281;50.356;30.894;2023-03-17T03:31:10;100499.58;;;3.08;100.00
43681;BME280;29281;50.356;30.894;2023-03-17T03:32:13;100499.39;;;3.14;100.00
43681;BME280;29281;50.356;30.894;2023-03-17T03:33:18;100494.33;;;3.08;100.00
43681;BME280;29281;50.356;30.894;2023-03-17T03:34:22;100502.33;;;3.05;100.00
43681;BME280;29281;50.356;30.894;2023-03-17T03:35:25;100499.58;;;3.08;100.00
43681;BME280;29281;50.356;30.894;2023-03-17T03:36:29;100503.02;;;3.10;100.00
43681;BME280;29281;50.356;30.894;2023-03-17T03:37:35;100498.77;;;3.06;100.00
43681;BME280;29281;50.356;30.894;2023-03-17T03:38:38;100502.16;;;3.09;100.00
43681;BME280;29281;50.356;30.894;2023-03-17T03:39:42;100500.39;;;3.10;100.00
43681;BME280;29281;50.356;30.894;2023-03-17T03:40:45;100505.91;;;3.02;100.00
43681;BME280;29281;50.356;30.894;2023-03-17T03:41:48;100500.19;;;2.90;100.00
43681;BME280;29281;50.356;30.894;2023-03-17T03:42:52;100505.95;;;3.01;100.00
43681;BME280;29281;50.356;30.894;2023-03-17T03:43:56;100508.27;;;3.10;100.00
43681;BME280;29281;50.356;30.894;2023-03-17T03:45:00;100509.70;;;2.92;100.00
43681;BME280;29281;50.356;30.894;2023-03-17T03:46:04;100503.23;;;3.04;100.00
43681;BME280;29281;50.356;30.894;2023-03-17T03:47:10;100507.36;;;3.11;100.00
43681;BME280;29281;50.356;30.894;2023-03-17T03:48:13;100519.02;;;3.02;100.00
43681;BME280;29281;50.356;30.894;2023-03-17T03:49:17;100512.23;;;2.95;100.00
43681;BME280;29281;50.356;30.894;2023-03-17T03:50:19;100514.22;;;2.89;100.00
43681;BME280;29281;50.356;30.894;2023-03-17T03:51:27;100510.52;;;2.94;100.00
43681;BME280;29281;50.356;30.894;2023-03-17T03:52:29;100510.78;;;2.87;100.00
43681;BME280;29281;50.356;30.894;2023-03-17T03:53:35;100510.03;;;3.09;100.00
43681;BME280;29281;50.356;30.894;2023-03-17T03:54:38;100506.13;;;2.95;100.00
43681;BME280;29281;50.356;30.894;2023-03-17T03:55:42;100516.02;;;2.87;100.00
43681;BME280;29281;50.356;30.894;2023-03-17T03:56:46;100515.55;;;2.74;100.00
43681;BME280;29281;50.356;30.894;2023-03-17T03:57:52;100525.18;;;2.73;100.00
43681;BME280;29281;50.356;30.894;2023-03-17T03:58:54;100518.73;;;2.83;100.00
43681;BME280;29281;50.356;30.894;2023-03-17T03:59:58;100520.97;;;2.96;100.00
43681;BME280;29281;50.356;30.894;2023-03-17T04:01:05;100521.02;;;2.94;100.00
43681;BME280;29281;50.356;30.894;2023-03-17T04:02:10;100518.55;;;2.90;100.00
43681;BME280;29281;50.356;30.894;2023-03-17T04:03:14;100518.78;;;2.82;100.00
43681;BME280;29281;50.356;30.894;2023-03-17T04:04:18;100519.59;;;2.84;100.00
43681;BME280;29281;50.356;30.894;2023-03-17T04:05:24;100526.65;;;2.82;100.00
43681;BME280;29281;50.356;30.894;2023-03-17T04:06:28;100522.39;;;2.78;100.00
43681;BME280;29281;50.356;30.894;2023-03-17T04:07:31;100532.07;;;2.76;100.00
43681;BME280;29281;50.356;30.894;2023-03-17T04:08:34;100535.37;;;2.82;100.00
43681;BME280;29281;50.356;30.894;2023-03-17T04:09:37;100526.98;;;2.99;100.00
43681;BME280;29281;50.356;30.894;2023-03-17T04:10:40;100531.94;;;2.80;100.00
43681;BME280;29281;50.356;30.894;2023-03-17T04:11:45;100537.56;;;2.96;100.00
43681;BME280;29281;50.356;30.894;2023-03-17T04:12:49;100534.52;;;2.82;100.00
43681;BME280;29281;50.356;30.894;2023-03-17T04:13:55;100537.05;;;2.85;100.00
43681;BME280;29281;50.356;30.894;2023-03-17T04:14:58;100536.83;;;2.63;100.00
43681;BME280;29281;50.356;30.894;2023-03-17T04:16:02;100535.24;;;2.87;100.00
43681;BME280;29281;50.356;30.894;2023-03-17T04:17:05;100535.89;;;2.94;100.00
43681;BME280;29281;50.356;30.894;2023-03-17T04:18:11;100543.54;;;2.73;100.00
43681;BME280;29281;50.356;30.894;2023-03-17T04:19:15;100548.58;;;2.79;100.00
43681;BME280;29281;50.356;30.894;2023-03-17T04:20:19;100544.79;;;2.90;100.00
43681;BME280;29281;50.356;30.894;2023-03-17T04:21:23;100544.32;;;2.75;100.00
43681;BME280;29281;50.356;30.894;2023-03-17T04:22:26;100550.42;;;2.76;100.00
43681;BME280;29281;50.356;30.894;2023-03-17T04:23:29;100547.72;;;2.79;100.00
43681;BME280;29281;50.356;30.894;2023-03-17T04:24:34;100550.13;;;2.87;100.00
43681;BME280;29281;50.356;30.894;2023-03-17T04:25:37;100554.59;;;2.83;100.00
43681;BME280;29281;50.356;30.894;2023-03-17T04:26:41;100559.23;;;2.75;100.00
43681;BME280;29281;50.356;30.894;2023-03-17T04:27:43;100556.27;;;2.86;100.00
43681;BME280;29281;50.356;30.894;2023-03-17T04:28:47;100557.34;;;3.06;100.00
43681;BME280;29281;50.356;30.894;2023-03-17T04:29:50;100550.34;;;3.07;100.00
43681;BME280;29281;50.356;30.894;2023-03-17T04:30:53;100560.95;;;3.04;100.00
43681;BME280;29281;50.356;30.894;2023-03-17T04:31:56;100552.31;;;3.00;100.00
43681;BME280;29281;50.356;30.894;2023-03-17T04:33:00;100551.83;;;3.15;100.00
43681;BME280;29281;50.356;30.894;2023-03-17T04:34:03;100559.56;;;3.20;100.00
43681;BME280;29281;50.356;30.894;2023-03-17T04:35:06;100560.98;;;3.30;100.00
43681;BME280;29281;50.356;30.894;2023-03-17T04:36:18;100559.16;;;3.32;100.00
43681;BME280;29281;50.356;30.894;2023-03-17T04:37:19;100555.41;;;3.13;100.00
43681;BME280;29281;50.356;30.894;2023-03-17T04:38:21;100560.74;;;3.10;100.00
43681;BME280;29281;50.356;30.894;2023-03-17T04:39:25;100560.70;;;3.11;100.00
43681;BME280;29281;50.356;30.894;2023-03-17T04:40:29;100564.05;;;3.16;100.00
43681;BME280;29281;50.356;30.894;2023-03-17T04:41:33;100569.82;;;3.00;100.00
43681;BME280;29281;50.356;30.894;2023-03-17T04:42:37;100565.17;;;3.08;100.00
43681;BME280;29281;50.356;30.894;2023-03-17T04:43:40;100573.22;;;3.03;100.00
43681;BME280;29281;50.356;30.894;2023-03-17T04:44:43;100568.02;;;3.02;100.00
43681;BME280;29281;50.356;30.894;2023-03-17T04:45:47;100568.52;;;3.13;100.00
43681;BME280;29281;50.356;30.894;2023-03-17T04:46:49;100575.54;;;3.12;100.00
43681;BME280;29281;50.356;30.894;2023-03-17T04:47:53;100572.44;;;3.00;100.00
43681;BME280;29281;50.356;30.894;2023-03-17T04:48:56;100574.08;;;3.04;100.00
43681;BME280;29281;50.356;30.894;2023-03-17T04:50:00;100578.30;;;3.08;100.00
43681;BME280;29281;50.356;30.894;2023-03-17T04:51:06;100580.19;;;3.04;100.00
43681;BME280;29281;50.356;30.894;2023-03-17T04:52:11;100578.03;;;2.89;100.00
43681;BME280;29281;50.356;30.894;2023-03-17T04:53:15;100583.80;;;3.00;100.00
43681;BME280;29281;50.356;30.894;2023-03-17T04:54:18;100577.30;;;3.12;100.00
43681;BME280;29281;50.356;30.894;2023-03-17T04:55:20;100581.98;;;3.02;100.00
43681;BME280;29281;50.356;30.894;2023-03-17T04:56:24;100586.89;;;3.13;100.00
43681;BME280;29281;50.356;30.894;2023-03-17T04:57:28;100587.45;;;2.95;100.00
43681;BME280;29281;50.356;30.894;2023-03-17T04:58:32;100582.80;;;3.04;100.00
43681;BME280;29281;50.356;30.894;2023-03-17T04:59:35;100579.80;;;3.16;100.00
43681;BME280;29281;50.356;30.894;2023-03-17T05:00:37;100581.30;;;2.96;100.00
43681;BME280;29281;50.356;30.894;2023-03-17T05:01:40;100589.27;;;2.93;100.00
43681;BME280;29281;50.356;30.894;2023-03-17T05:02:45;100591.38;;;3.09;100.00
43681;BME280;29281;50.356;30.894;2023-03-17T05:03:50;100590.98;;;3.22;100.00
43681;BME280;29281;50.356;30.894;2023-03-17T05:04:53;100597.34;;;3.14;100.00
43681;BME280;29281;50.356;30.894;2023-03-17T05:05:56;100593.61;;;2.94;100.00
43681;BME280;29281;50.356;30.894;2023-03-17T05:06:59;100593.30;;;3.04;100.00
43681;BME280;29281;50.356;30.894;2023-03-17T05:09:15;100595.54;;;3.16;100.00
43681;BME280;29281;50.356;30.894;2023-03-17T05:10:19;100587.98;;;3.06;100.00
43681;BME280;29281;50.356;30.894;2023-03-17T05:11:22;100594.86;;;3.10;100.00
43681;BME280;29281;50.356;30.894;2023-03-17T05:12:26;100600.58;;;2.95;100.00
43681;BME280;29281;50.356;30.894;2023-03-17T05:13:31;100598.28;;;2.84;100.00
43681;BME280;29281;50.356;30.894;2023-03-17T05:14:34;100598.94;;;2.91;100.00
43681;BME280;29281;50.356;30.894;2023-03-17T05:15:38;100599.67;;;2.96;100.00
43681;BME280;29281;50.356;30.894;2023-03-17T05:16:42;100605.60;;;3.02;100.00
43681;BME280;29281;50.356;30.894;2023-03-17T05:17:45;100615.84;;;3.10;100.00
43681;BME280;29281;50.356;30.894;2023-03-17T05:18:48;100607.80;;;3.16;100.00
43681;BME280;29281;50.356;30.894;2023-03-17T05:19:51;100608.79;;;3.12;100.00
43681;BME280;29281;50.356;30.894;2023-03-17T05:20:54;100610.69;;;3.07;100.00
43681;BME280;29281;50.356;30.894;2023-03-17T05:21:58;100611.23;;;3.18;100.00
43681;BME280;29281;50.356;30.894;2023-03-17T05:23:01;100612.27;;;3.12;100.00
43681;BME280;29281;50.356;30.894;2023-03-17T05:24:05;100606.81;;;3.20;100.00
43681;BME280;29281;50.356;30.894;2023-03-17T05:25:16;100598.58;;;3.31;100.00
43681;BME280;29281;50.356;30.894;2023-03-17T05:26:20;100608.64;;;3.44;100.00
43681;BME280;29281;50.356;30.894;2023-03-17T05:27:24;100605.16;;;3.44;100.00
43681;BME280;29281;50.356;30.894;2023-03-17T05:28:29;100609.03;;;3.32;100.00
43681;BME280;29281;50.356;30.894;2023-03-17T05:29:33;100604.41;;;3.12;100.00
43681;BME280;29281;50.356;30.894;2023-03-17T05:30:36;100604.45;;;3.11;100.00
43681;BME280;29281;50.356;30.894;2023-03-17T05:31:43;100605.64;;;3.29;100.00
43681;BME280;29281;50.356;30.894;2023-03-17T05:32:50;100602.93;;;3.32;100.00
43681;BME280;29281;50.356;30.894;2023-03-17T05:33:53;100601.72;;;3.42;100.00
43681;BME280;29281;50.356;30.894;2023-03-17T05:34:56;100608.36;;;3.26;100.00
43681;BME280;29281;50.356;30.894;2023-03-17T05:35:59;100608.49;;;3.21;100.00
43681;BME280;29281;50.356;30.894;2023-03-17T05:37:03;100612.10;;;3.18;100.00
43681;BME280;29281;50.356;30.894;2023-03-17T05:38:08;100609.80;;;3.36;100.00
43681;BME280;29281;50.356;30.894;2023-03-17T05:39:14;100612.43;;;3.36;100.00